createdAt,value
2022-12-08T00:02:12.443Z,-0.42
2022-12-08T00:05:53.643Z,-0.37
2022-12-08T00:09:15.428Z,-0.08
2022-12-08T00:12:18.594Z,-0.06
2022-12-08T00:15:35.580Z,-0.14
2022-12-08T00:18:38.580Z,-0.18
2022-12-08T00:22:00.358Z,-0.20
2022-12-08T00:25:03.011Z,-0.35
2022-12-08T00:28:09.833Z,-0.44
2022-12-08T00:31:13.007Z,-0.38
2022-12-08T00:34:16.327Z,-0.55
2022-12-08T00:37:21.617Z,-0.51
2022-12-08T00:40:46.213Z,-0.59
2022-12-08T00:43:52.156Z,-0.63
2022-12-08T00:47:02.310Z,-0.62
2022-12-08T00:50:11.842Z,-0.60
2022-12-08T00:53:18.390Z,-0.66
2022-12-08T00:56:21.499Z,-0.70
2022-12-08T00:59:24.150Z,-0.53
2022-12-08T01:02:26.655Z,-0.59
2022-12-08T01:05:33.463Z,-0.61
2022-12-08T01:08:42.445Z,-0.67
2022-12-08T01:11:48.627Z,-0.70
2022-12-08T01:15:05.188Z,-0.79
2022-12-08T01:18:15.956Z,-0.86
2022-12-08T01:21:34.662Z,-0.85
2022-12-08T01:24:50.994Z,-0.92
2022-12-08T01:31:18.460Z,-1.01
2022-12-08T01:34:37.741Z,-1.00
2022-12-08T01:37:40.672Z,-1.05
2022-12-08T01:40:59.079Z,-1.07
2022-12-08T01:44:04.505Z,-1.08
2022-12-08T01:47:31.158Z,-1.12
2022-12-08T01:53:50.200Z,-1.18
2022-12-08T01:57:11.444Z,-1.28
2022-12-08T02:00:25.993Z,-1.40
2022-12-08T02:03:51.565Z,-1.52
2022-12-08T02:06:55.244Z,-1.59
2022-12-08T02:13:22.883Z,-1.69
2022-12-08T02:16:57.207Z,-1.75
2022-12-08T02:20:36.259Z,-1.79
2022-12-08T02:27:26.106Z,-1.72
2022-12-08T02:31:03.228Z,-1.75
2022-12-08T02:34:31.298Z,-1.74
2022-12-08T02:37:37.279Z,-1.59
2022-12-08T02:40:50.387Z,-1.53
2022-12-08T02:44:09.441Z,-1.43
2022-12-08T02:47:14.256Z,-1.37
2022-12-08T02:50:28.405Z,-1.24
2022-12-08T02:57:21.812Z,-1.01
2022-12-08T03:00:33.421Z,-0.83
2022-12-08T03:04:08.440Z,-0.92
2022-12-08T03:07:28.924Z,-0.77
2022-12-08T03:14:00.893Z,-0.84
2022-12-08T03:17:11.726Z,-0.85
2022-12-08T03:20:20.404Z,-0.73
2022-12-08T03:23:24.151Z,-0.74
2022-12-08T03:26:37.797Z,-0.73
2022-12-08T03:29:47.437Z,-0.63
2022-12-08T03:33:24.141Z,-0.45
2022-12-08T03:36:26.865Z,-0.53
2022-12-08T03:39:32.450Z,-0.51
2022-12-08T03:42:35.205Z,-0.35
2022-12-08T03:45:43.256Z,-0.41
2022-12-08T03:52:14.213Z,-0.46
2022-12-08T03:55:48.270Z,-0.56
2022-12-08T03:59:05.354Z,-0.56
2022-12-08T04:02:23.901Z,-0.57
2022-12-08T04:06:46.264Z,-0.58
2022-12-08T04:09:01.705Z,-0.48
2022-12-08T04:12:15.803Z,-0.39
2022-12-08T04:15:35.662Z,-0.46
2022-12-08T04:18:42.078Z,-0.42
2022-12-08T04:22:11.843Z,-0.36
2022-12-08T04:25:18.416Z,-0.32
2022-12-08T04:32:17.261Z,-0.24
2022-12-08T04:35:38.021Z,-0.12
2022-12-08T04:38:41.810Z,-0.13
2022-12-08T04:41:44.744Z,-0.16
2022-12-08T04:45:00.077Z,-0.08
2022-12-08T04:48:04.816Z,-0.04
2022-12-08T04:51:28.877Z,-0.06
2022-12-08T04:54:39.000Z,-0.08
2022-12-08T04:57:42.836Z,-0.05
2022-12-08T05:00:47.719Z,-0.02
2022-12-08T05:04:16.829Z,0.11
2022-12-08T05:07:39.464Z,0.15
2022-12-08T05:11:08.383Z,0.27
2022-12-08T05:14:12.416Z,0.31
2022-12-08T05:17:19.658Z,0.14
2022-12-08T05:20:22.306Z,0.12
2022-12-08T05:23:27.811Z,0.15
2022-12-08T05:26:59.588Z,0.18
2022-12-08T05:30:01.749Z,0.21
2022-12-08T05:33:15.147Z,0.28
2022-12-08T05:36:21.470Z,0.27
2022-12-08T05:39:46.722Z,0.32
2022-12-08T05:42:55.398Z,0.28
2022-12-08T05:46:15.159Z,0.27
2022-12-08T05:49:24.529Z,0.56
2022-12-08T05:52:27.179Z,0.47
2022-12-08T05:55:42.203Z,0.45
2022-12-08T06:02:25.162Z,0.42
2022-12-08T06:05:53.433Z,0.39
2022-12-08T06:08:56.820Z,0.43
2022-12-08T06:15:38.995Z,0.59
2022-12-08T06:18:43.166Z,0.52
2022-12-08T06:21:54.841Z,0.52
2022-12-08T06:24:59.699Z,0.47
2022-12-08T06:28:09.030Z,0.50
2022-12-08T06:31:14.461Z,0.51
2022-12-08T06:34:21.346Z,0.56
2022-12-08T06:37:41.024Z,0.57
2022-12-08T06:40:53.705Z,0.56
2022-12-08T06:43:58.327Z,0.63
2022-12-08T06:47:16.536Z,0.65
2022-12-08T06:50:32.211Z,0.68
2022-12-08T06:53:34.913Z,0.79
2022-12-08T06:56:37.606Z,1.01
2022-12-08T07:02:56.223Z,1.25
2022-12-08T07:06:03.789Z,1.30
2022-12-08T07:09:16.584Z,1.33
2022-12-08T07:12:26.218Z,1.34
2022-12-08T07:15:47.569Z,1.35
2022-12-08T07:18:56.683Z,1.40
2022-12-08T07:21:59.978Z,1.41
2022-12-08T07:25:02.727Z,1.49
2022-12-08T07:28:18.337Z,1.56
2022-12-08T07:31:27.060Z,1.70
2022-12-08T07:34:37.161Z,1.78
2022-12-08T07:37:39.421Z,1.81
2022-12-08T07:40:41.916Z,1.92
2022-12-08T07:43:56.031Z,1.95
2022-12-08T07:46:59.604Z,2.02
2022-12-08T07:50:11.451Z,2.10
2022-12-08T07:53:47.289Z,2.23
2022-12-08T07:57:03.472Z,2.23
2022-12-08T08:00:10.249Z,2.47
2022-12-08T08:03:16.394Z,2.60
2022-12-08T08:09:57.042Z,2.79
2022-12-08T08:13:26.791Z,2.89
2022-12-08T08:16:38.720Z,3.05
2022-12-08T08:19:55.739Z,3.12
2022-12-08T08:23:03.243Z,3.28
2022-12-08T08:26:09.557Z,3.38
2022-12-08T08:29:11.909Z,3.52
2022-12-08T08:32:38.229Z,3.56
2022-12-08T08:35:56.978Z,3.66
2022-12-08T08:39:13.246Z,3.73
2022-12-08T08:42:25.631Z,3.92
2022-12-08T08:45:41.347Z,3.92
2022-12-08T08:48:43.832Z,4.02
2022-12-08T08:51:50.524Z,4.16
2022-12-08T08:54:57.217Z,4.26
2022-12-08T08:58:16.817Z,4.31
2022-12-08T09:01:21.236Z,4.39
2022-12-08T09:04:25.137Z,4.51
2022-12-08T09:07:29.561Z,4.44
2022-12-08T09:10:36.039Z,4.16
2022-12-08T09:13:39.820Z,4.31
2022-12-08T09:16:50.201Z,4.02
2022-12-08T09:19:58.631Z,4.04
2022-12-08T09:23:00.776Z,4.01
2022-12-08T09:26:08.075Z,4.06
2022-12-08T09:29:23.247Z,4.08
2022-12-08T09:32:28.220Z,4.16
2022-12-08T09:35:31.827Z,4.07
2022-12-08T09:38:33.958Z,4.09
2022-12-08T09:41:44.816Z,3.93
2022-12-08T09:45:37.009Z,4.04
2022-12-08T09:48:44.290Z,4.12
2022-12-08T09:51:52.740Z,4.26
2022-12-08T09:55:08.236Z,4.31
2022-12-08T09:58:26.264Z,4.41
2022-12-08T10:01:39.343Z,4.45
2022-12-08T10:04:54.083Z,4.66
2022-12-08T10:08:10.428Z,4.86
2022-12-08T10:11:22.263Z,4.91
2022-12-08T10:14:34.141Z,4.85
2022-12-08T10:17:41.293Z,4.86
2022-12-08T10:20:45.311Z,4.83
2022-12-08T10:23:56.019Z,4.79
2022-12-08T10:27:14.973Z,4.59
2022-12-08T10:30:33.049Z,4.67
2022-12-08T10:33:36.345Z,4.77
2022-12-08T10:36:55.663Z,4.93
2022-12-08T10:40:23.788Z,5.00
2022-12-08T10:43:31.761Z,4.85
2022-12-08T10:46:49.399Z,4.70
2022-12-08T10:50:19.692Z,4.84
2022-12-08T10:53:37.916Z,4.79
2022-12-08T10:56:40.819Z,4.66
2022-12-08T10:59:46.891Z,4.64
2022-12-08T11:02:53.869Z,4.70
2022-12-08T11:06:10.867Z,4.81
2022-12-08T11:09:21.865Z,4.91
2022-12-08T11:12:31.845Z,4.94
2022-12-08T11:15:55.426Z,4.82
2022-12-08T11:18:58.686Z,4.81
2022-12-08T11:22:19.408Z,4.54
2022-12-08T11:25:30.800Z,4.53
2022-12-08T11:28:41.127Z,4.23
2022-12-08T11:32:14.691Z,4.23
2022-12-08T11:35:39.966Z,4.16
2022-12-08T11:38:49.705Z,4.23
2022-12-08T11:41:58.876Z,4.18
2022-12-08T11:45:10.111Z,4.18
2022-12-08T11:48:20.537Z,4.27
2022-12-08T11:51:33.926Z,4.40
2022-12-08T11:55:03.984Z,4.38
2022-12-08T11:58:26.163Z,4.34
2022-12-08T12:01:28.388Z,4.40
2022-12-08T12:07:54.810Z,4.48
2022-12-08T12:11:37.391Z,4.45
2022-12-08T12:15:00.963Z,4.53
2022-12-08T12:18:13.332Z,4.63
2022-12-08T12:21:25.084Z,4.39
2022-12-08T12:24:37.488Z,4.23
2022-12-08T12:27:57.206Z,4.23
2022-12-08T12:31:17.169Z,4.13
2022-12-08T12:34:41.698Z,4.12
2022-12-08T12:37:48.100Z,4.03
2022-12-08T12:40:57.229Z,4.02
2022-12-08T12:44:12.059Z,4.03
2022-12-08T12:47:35.445Z,3.99
2022-12-08T12:50:51.617Z,3.99
2022-12-08T12:54:27.755Z,4.01
2022-12-08T12:57:49.387Z,3.92
2022-12-08T13:01:25.282Z,3.86
2022-12-08T13:04:49.345Z,3.83
2022-12-08T13:08:16.213Z,3.90
2022-12-08T13:11:22.989Z,3.80
2022-12-08T13:14:39.834Z,3.77
2022-12-08T13:17:46.760Z,3.75
2022-12-08T13:21:09.644Z,3.70
2022-12-08T13:24:14.386Z,3.70
2022-12-08T13:27:19.737Z,3.77
2022-12-08T13:30:58.522Z,3.79
2022-12-08T13:34:08.313Z,3.85
2022-12-08T13:37:10.976Z,3.90
2022-12-08T13:40:22.970Z,3.94
2022-12-08T13:44:20.097Z,3.93
2022-12-08T13:47:37.113Z,3.90
2022-12-08T13:52:29.497Z,3.85
2022-12-08T13:57:37.143Z,3.69
2022-12-08T14:00:39.637Z,3.55
2022-12-08T14:04:30.882Z,3.60
2022-12-08T14:07:19.274Z,3.59
2022-12-08T14:10:28.500Z,3.62
2022-12-08T14:13:39.228Z,3.57
2022-12-08T14:16:58.040Z,3.55
2022-12-08T14:20:16.298Z,3.54
2022-12-08T14:23:21.121Z,3.40
2022-12-08T14:26:26.657Z,3.39
2022-12-08T14:29:43.087Z,3.38
2022-12-08T14:32:52.502Z,3.33
2022-12-08T14:36:14.278Z,3.30
2022-12-08T14:39:29.126Z,3.25
2022-12-08T14:42:42.532Z,3.20
2022-12-08T14:46:00.791Z,3.23
2022-12-08T14:49:04.182Z,3.19
2022-12-08T14:52:13.914Z,3.16
2022-12-08T14:55:29.922Z,3.19
2022-12-08T14:58:34.218Z,3.20
2022-12-08T15:01:41.036Z,3.21
2022-12-08T15:04:49.230Z,3.23
2022-12-08T15:07:54.496Z,3.20
2022-12-08T15:11:15.531Z,3.20
2022-12-08T15:14:35.685Z,3.14
2022-12-08T15:17:44.452Z,3.18
2022-12-08T15:21:02.538Z,3.09
2022-12-08T15:24:04.974Z,3.11
2022-12-08T15:27:24.897Z,3.13
2022-12-08T15:30:28.031Z,3.13
2022-12-08T15:33:30.414Z,3.08
2022-12-08T15:36:44.113Z,3.08
2022-12-08T15:39:57.728Z,3.14
2022-12-08T15:43:01.290Z,3.04
2022-12-08T15:46:16.451Z,3.01
2022-12-08T15:49:26.782Z,3.09
2022-12-08T15:52:29.139Z,3.07
2022-12-08T15:55:57.879Z,3.06
2022-12-08T15:59:13.148Z,2.99
2022-12-08T16:02:22.224Z,3.09
2022-12-08T16:06:06.961Z,3.12
2022-12-08T16:09:00.750Z,3.15
2022-12-08T16:13:48.061Z,3.16
2022-12-08T16:16:16.375Z,3.37
2022-12-08T16:19:20.476Z,3.38
2022-12-08T16:29:35.082Z,2.93
2022-12-08T16:32:40.683Z,2.82
2022-12-08T16:35:44.516Z,2.78
2022-12-08T16:39:02.422Z,2.69
2022-12-08T16:42:25.223Z,2.63
2022-12-08T16:45:30.833Z,2.61
2022-12-08T16:48:44.886Z,2.54
2022-12-08T16:51:58.978Z,2.49
2022-12-08T16:55:14.472Z,2.43
2022-12-08T17:01:47.393Z,2.46
2022-12-08T17:04:49.938Z,2.46
2022-12-08T17:07:59.804Z,2.44
2022-12-08T17:11:08.077Z,2.50
2022-12-08T17:14:10.498Z,2.53
2022-12-08T17:17:34.530Z,2.48
2022-12-08T17:20:41.228Z,2.51
2022-12-08T17:23:44.085Z,2.54
2022-12-08T17:26:46.839Z,2.58
2022-12-08T17:29:53.215Z,2.56
2022-12-08T17:32:59.076Z,2.58
2022-12-08T17:36:01.433Z,2.67
2022-12-08T17:39:04.684Z,2.67
2022-12-08T17:42:13.039Z,2.64
2022-12-08T17:45:15.696Z,2.65
2022-12-08T17:48:18.725Z,2.64
2022-12-08T17:51:22.433Z,2.70
2022-12-08T17:54:25.931Z,2.76
2022-12-08T17:57:28.415Z,2.69
2022-12-08T18:00:32.806Z,2.70
2022-12-08T18:03:38.687Z,2.76
2022-12-08T18:06:42.807Z,2.83
2022-12-08T18:09:47.841Z,2.81
2022-12-08T18:12:50.072Z,2.79
2022-12-08T18:15:55.142Z,2.81
2022-12-08T18:18:58.287Z,2.89
2022-12-08T18:22:02.458Z,2.87
2022-12-08T18:25:06.978Z,2.83
2022-12-08T18:28:10.546Z,2.86
2022-12-08T18:31:18.783Z,2.84
2022-12-08T18:34:22.578Z,2.86
2022-12-08T18:37:25.808Z,2.85
2022-12-08T18:40:28.788Z,2.95
2022-12-08T18:43:31.369Z,2.95
2022-12-08T18:46:35.024Z,2.98
2022-12-08T18:49:39.502Z,2.93
2022-12-08T18:52:43.081Z,2.89
2022-12-08T18:55:47.220Z,2.87
2022-12-08T18:58:51.123Z,2.84
2022-12-08T19:01:53.418Z,2.79
2022-12-08T19:04:57.172Z,2.82
2022-12-08T19:08:00.785Z,2.82
2022-12-08T19:11:04.937Z,2.84
2022-12-08T19:14:08.079Z,2.80
2022-12-08T19:17:12.868Z,2.91
2022-12-08T19:20:16.961Z,2.87
2022-12-08T19:23:20.900Z,2.96
2022-12-08T19:26:24.169Z,2.99
2022-12-08T19:29:27.743Z,2.98
2022-12-08T19:32:31.995Z,3.02
2022-12-08T19:35:38.885Z,3.05
2022-12-08T19:39:00.702Z,3.03
2022-12-08T19:42:25.194Z,3.01
2022-12-08T19:45:28.662Z,2.98
2022-12-08T19:48:31.684Z,3.01
2022-12-08T19:51:36.341Z,2.86
2022-12-08T19:54:40.528Z,2.80
2022-12-08T19:57:44.290Z,2.83
2022-12-08T20:00:47.841Z,2.86
2022-12-08T20:03:52.719Z,2.89
2022-12-08T20:06:56.830Z,2.86
2022-12-08T20:10:00.668Z,2.80
2022-12-08T20:13:25.083Z,2.81
2022-12-08T20:16:30.286Z,2.85
2022-12-08T20:19:34.560Z,2.84
2022-12-08T20:22:38.944Z,2.77
2022-12-08T20:25:43.937Z,2.72
2022-12-08T20:28:47.617Z,2.65
2022-12-08T20:31:52.647Z,2.68
2022-12-08T20:34:56.151Z,2.60
2022-12-08T20:37:59.868Z,2.61
2022-12-08T20:41:03.075Z,2.63
2022-12-08T20:44:07.369Z,2.69
2022-12-08T20:47:10.359Z,2.66
2022-12-08T20:50:13.914Z,2.69
2022-12-08T20:53:18.439Z,2.61
2022-12-08T20:56:22.813Z,2.60
2022-12-08T20:59:27.715Z,2.57
2022-12-08T21:02:30.920Z,2.60
2022-12-08T21:05:36.172Z,2.64
2022-12-08T21:08:41.320Z,2.66
2022-12-08T21:11:44.780Z,2.67
2022-12-08T21:14:47.504Z,2.77
2022-12-08T21:17:50.725Z,2.75
2022-12-08T21:20:54.406Z,2.77
2022-12-08T21:23:57.950Z,2.71
2022-12-08T21:27:01.548Z,2.73
2022-12-08T21:30:06.157Z,2.68
2022-12-08T21:33:11.775Z,2.65
2022-12-08T21:36:19.077Z,2.62
2022-12-08T21:39:22.264Z,2.72
2022-12-08T21:42:43.866Z,2.67
2022-12-08T21:45:48.498Z,2.71
2022-12-08T21:48:51.328Z,2.73
2022-12-08T21:51:53.769Z,2.73
2022-12-08T21:54:58.040Z,2.69
2022-12-08T21:58:03.365Z,2.63
2022-12-08T22:01:10.770Z,2.64
2022-12-08T22:04:16.996Z,2.63
2022-12-08T22:07:21.028Z,2.67
2022-12-08T22:10:24.177Z,2.66
2022-12-08T22:13:28.069Z,2.76
2022-12-08T22:16:32.321Z,2.76
2022-12-08T22:19:35.596Z,2.74
2022-12-08T22:22:41.381Z,2.79
2022-12-08T22:25:45.172Z,2.70
2022-12-08T22:28:51.927Z,2.69
2022-12-08T22:31:56.522Z,2.60
2022-12-08T22:34:59.457Z,2.55
2022-12-08T22:38:03.185Z,2.53
2022-12-08T22:41:06.372Z,2.62
2022-12-08T22:44:09.855Z,2.60
2022-12-08T22:47:13.484Z,2.67
2022-12-08T22:50:19.122Z,2.68
2022-12-08T22:53:22.086Z,2.80
2022-12-08T22:56:24.645Z,2.76
2022-12-08T22:59:30.350Z,2.75
2022-12-08T23:02:35.186Z,2.63
2022-12-08T23:05:39.073Z,2.68
2022-12-08T23:08:42.932Z,2.64
2022-12-08T23:11:50.259Z,2.68
2022-12-08T23:14:53.503Z,2.68
2022-12-08T23:17:56.759Z,2.81
2022-12-08T23:21:03.743Z,2.67
2022-12-08T23:24:07.023Z,2.56
2022-12-08T23:27:10.307Z,2.46
2022-12-08T23:30:13.145Z,2.46
2022-12-08T23:33:19.676Z,2.43
2022-12-08T23:36:28.187Z,2.51
2022-12-08T23:39:31.031Z,2.46
2022-12-08T23:42:36.430Z,2.44
2022-12-08T23:45:40.630Z,2.51
2022-12-08T23:48:44.287Z,2.50
2022-12-08T23:51:48.253Z,2.57
2022-12-08T23:54:52.691Z,2.62
2022-12-08T23:57:56.907Z,2.62
